createdAt,value
2022-10-03T00:01:44.175Z,10.17
2022-10-03T00:04:35.735Z,10.70
2022-10-03T00:07:30.012Z,8.33
2022-10-03T00:10:18.666Z,9.40
2022-10-03T00:13:07.706Z,8.77
2022-10-03T00:16:02.226Z,12.93
2022-10-03T00:18:48.022Z,9.47
2022-10-03T00:21:41.425Z,12.70
2022-10-03T00:24:24.426Z,11.20
2022-10-03T00:27:08.599Z,8.43
2022-10-03T00:30:02.122Z,9.63
2022-10-03T00:33:22.244Z,10.80
2022-10-03T00:36:16.689Z,18.20
2022-10-03T00:39:09.301Z,12.80
2022-10-03T00:42:07.175Z,10.33
2022-10-03T00:44:59.316Z,8.90
2022-10-03T00:47:51.111Z,16.27
2022-10-03T00:50:32.904Z,9.47
2022-10-03T00:53:27.404Z,10.67
2022-10-03T00:56:25.819Z,9.90
2022-10-03T00:59:07.078Z,12.77
2022-10-03T01:01:45.907Z,13.60
2022-10-03T01:05:01.630Z,9.57
2022-10-03T01:08:26.653Z,10.97
2022-10-03T01:11:09.140Z,10.13
2022-10-03T01:13:46.798Z,9.50
2022-10-03T01:16:44.506Z,10.63
2022-10-03T01:19:49.855Z,9.67
2022-10-03T01:23:13.202Z,8.93
2022-10-03T01:25:53.196Z,12.77
2022-10-03T01:29:28.214Z,13.20
2022-10-03T01:32:08.384Z,12.07
2022-10-03T01:35:31.669Z,15.70
2022-10-03T01:38:40.387Z,15.10
2022-10-03T01:41:36.401Z,11.27
2022-10-03T01:44:26.395Z,11.10
2022-10-03T01:47:14.335Z,13.03
2022-10-03T01:50:00.101Z,11.87
2022-10-03T01:53:06.752Z,13.37
2022-10-03T01:55:55.662Z,16.37
2022-10-03T01:58:37.153Z,13.90
2022-10-03T02:01:21.702Z,11.60
2022-10-03T02:04:22.496Z,12.23
2022-10-03T02:07:12.516Z,13.17
2022-10-03T02:09:52.338Z,12.20
2022-10-03T02:12:26.825Z,16.80
2022-10-03T02:15:19.368Z,12.50
2022-10-03T02:18:02.493Z,13.80
2022-10-03T02:20:50.346Z,10.00
2022-10-03T02:23:33.821Z,14.73
2022-10-03T02:26:09.190Z,19.00
2022-10-03T02:29:17.069Z,17.53
2022-10-03T02:32:07.054Z,10.53
2022-10-03T02:34:56.502Z,15.23
2022-10-03T02:37:58.195Z,12.63
2022-10-03T02:41:01.799Z,15.10
2022-10-03T02:43:58.927Z,13.47
2022-10-03T02:47:18.641Z,11.37
2022-10-03T02:49:57.790Z,16.60
2022-10-03T02:53:00.509Z,13.60
2022-10-03T02:56:10.073Z,17.53
2022-10-03T02:59:52.262Z,15.47
2022-10-03T03:02:57.321Z,10.13
2022-10-03T03:05:51.430Z,13.23
2022-10-03T03:09:00.331Z,15.97
2022-10-03T03:12:14.003Z,14.73
2022-10-03T03:15:37.148Z,13.17
2022-10-03T03:18:47.481Z,11.83
2022-10-03T03:21:44.457Z,11.70
2022-10-03T03:25:08.878Z,13.37
2022-10-03T03:28:04.486Z,11.90
2022-10-03T03:30:59.151Z,9.63
2022-10-03T03:34:22.400Z,12.43
2022-10-03T03:37:13.603Z,9.73
2022-10-03T03:40:11.656Z,14.17
2022-10-03T03:43:20.379Z,13.17
2022-10-03T03:46:44.693Z,9.47
2022-10-03T03:49:46.692Z,13.23
2022-10-03T03:53:00.776Z,8.30
2022-10-03T03:55:33.510Z,13.77
2022-10-03T03:58:08.119Z,13.77
2022-10-03T04:01:06.639Z,14.70
2022-10-03T04:04:14.766Z,11.23
2022-10-03T04:07:07.050Z,8.47
2022-10-03T04:10:23.672Z,10.43
2022-10-03T04:13:01.757Z,12.23
2022-10-03T04:16:00.170Z,16.03
2022-10-03T04:18:48.387Z,16.03
2022-10-03T04:21:52.906Z,11.23
2022-10-03T04:24:53.039Z,8.67
2022-10-03T04:28:01.201Z,12.17
2022-10-03T04:30:39.632Z,11.03
2022-10-03T04:34:03.960Z,10.63
2022-10-03T04:36:55.124Z,11.37
2022-10-03T04:39:47.925Z,13.20
2022-10-03T04:43:02.151Z,12.57
2022-10-03T04:45:48.153Z,11.77
2022-10-03T04:48:39.630Z,13.70
2022-10-03T04:51:26.190Z,14.53
2022-10-03T04:54:15.355Z,13.83
2022-10-03T04:56:45.249Z,13.10
2022-10-03T04:59:42.174Z,15.77
2022-10-03T05:02:52.938Z,13.47
2022-10-03T05:05:41.645Z,11.47
2022-10-03T05:08:22.948Z,11.97
2022-10-03T05:11:30.278Z,19.20
2022-10-03T05:14:40.498Z,13.77
2022-10-03T05:17:42.415Z,12.10
2022-10-03T05:21:00.683Z,12.30
2022-10-03T05:24:02.858Z,12.87
2022-10-03T05:27:03.219Z,16.03
2022-10-03T05:29:43.933Z,13.00
2022-10-03T05:32:30.383Z,14.87
2022-10-03T05:35:37.418Z,15.27
2022-10-03T05:38:16.273Z,19.07
2022-10-03T05:41:02.420Z,14.37
2022-10-03T05:43:58.148Z,12.67
2022-10-03T05:47:31.465Z,15.73
2022-10-03T05:50:43.274Z,12.23
2022-10-03T05:53:30.702Z,19.50
2022-10-03T05:56:47.475Z,14.87
2022-10-03T06:00:01.960Z,13.80
2022-10-03T06:02:53.969Z,11.07
2022-10-03T06:05:46.377Z,17.43
2022-10-03T06:08:50.977Z,13.10
2022-10-03T06:11:52.189Z,15.57
2022-10-03T06:14:49.709Z,15.03
2022-10-03T06:17:53.967Z,13.77
2022-10-03T06:21:01.218Z,15.57
2022-10-03T06:24:15.486Z,12.53
2022-10-03T06:26:58.072Z,10.47
2022-10-03T06:30:05.715Z,14.97
2022-10-03T06:33:09.181Z,12.83
2022-10-03T06:36:06.674Z,15.67
2022-10-03T06:39:16.961Z,19.33
2022-10-03T06:42:17.834Z,14.50
2022-10-03T06:45:11.871Z,14.10
2022-10-03T06:48:08.680Z,15.13
2022-10-03T06:50:50.154Z,16.73
2022-10-03T06:53:48.925Z,11.80
2022-10-03T06:56:31.690Z,12.90
2022-10-03T06:59:39.644Z,18.20
2022-10-03T07:07:00.486Z,12.00
2022-10-03T07:09:53.787Z,14.00
2022-10-03T07:12:38.247Z,15.53
2022-10-03T07:16:08.846Z,15.40
2022-10-03T07:18:48.616Z,14.20
2022-10-03T07:22:22.197Z,13.30
2022-10-03T07:25:15.105Z,15.40
2022-10-03T07:28:04.474Z,10.87
2022-10-03T07:31:03.063Z,16.03
2022-10-03T07:33:53.540Z,14.57
2022-10-03T07:37:22.522Z,14.80
2022-10-03T07:40:29.696Z,15.77
2022-10-03T07:43:20.533Z,15.77
2022-10-03T07:46:10.935Z,10.67
2022-10-03T07:49:20.551Z,12.73
2022-10-03T07:52:17.940Z,14.47
2022-10-03T07:55:02.728Z,18.43
2022-10-03T07:58:14.562Z,14.33
2022-10-03T08:01:18.162Z,12.27
2022-10-03T08:04:21.535Z,10.13
2022-10-03T08:07:06.021Z,11.53
2022-10-03T08:09:57.456Z,11.13
2022-10-03T08:12:48.929Z,14.40
2022-10-03T08:15:49.726Z,12.30
2022-10-03T08:18:57.249Z,11.17
2022-10-03T08:21:55.906Z,11.23
2022-10-03T08:25:16.812Z,9.67
2022-10-03T08:28:18.136Z,11.10
2022-10-03T08:31:30.682Z,9.03
2022-10-03T08:34:10.183Z,12.63
2022-10-03T08:37:14.651Z,12.82
2022-10-03T08:40:53.603Z,13.07
2022-10-03T08:44:03.456Z,11.68
2022-10-03T08:47:03.991Z,10.27
2022-10-03T08:50:22.750Z,10.88
2022-10-03T08:53:29.019Z,13.15
2022-10-03T08:56:17.886Z,9.82
2022-10-03T08:59:28.690Z,14.02
2022-10-03T09:02:45.043Z,11.68
2022-10-03T09:05:50.352Z,12.15
2022-10-03T09:09:13.659Z,10.70
2022-10-03T09:12:31.634Z,11.50
2022-10-03T09:15:27.189Z,10.27
2022-10-03T09:18:14.884Z,8.63
2022-10-03T09:21:23.112Z,7.78
2022-10-03T09:24:26.096Z,7.95
2022-10-03T09:27:32.584Z,10.60
2022-10-03T09:30:25.930Z,11.60
2022-10-03T09:33:43.022Z,9.13
2022-10-03T09:36:34.670Z,14.15
2022-10-03T09:40:17.689Z,9.48
2022-10-03T09:43:20.999Z,6.55
2022-10-03T09:46:46.309Z,8.30
2022-10-03T09:49:57.703Z,6.68
2022-10-03T09:53:03.572Z,8.23
2022-10-03T09:55:53.236Z,7.75
2022-10-03T09:58:41.807Z,10.00
2022-10-03T10:01:17.611Z,7.53
2022-10-03T10:03:47.221Z,7.07
2022-10-03T10:06:25.856Z,6.00
2022-10-03T10:09:39.788Z,16.52
2022-10-03T10:12:18.421Z,8.18
2022-10-03T10:14:53.878Z,10.00
2022-10-03T10:18:00.890Z,6.28
2022-10-03T10:21:04.775Z,6.10
2022-10-03T10:23:57.464Z,6.07
2022-10-03T10:26:29.953Z,9.18
2022-10-03T10:29:41.886Z,6.85
2022-10-03T10:32:46.225Z,4.57
2022-10-03T10:35:40.671Z,6.50
2022-10-03T10:38:38.765Z,5.88
2022-10-03T10:41:44.717Z,6.45
2022-10-03T10:45:11.014Z,6.68
2022-10-03T10:48:24.392Z,7.93
2022-10-03T10:51:16.638Z,7.70
2022-10-03T10:54:33.691Z,6.63
2022-10-03T10:57:46.266Z,8.13
2022-10-03T11:00:48.711Z,6.68
2022-10-03T11:04:00.111Z,6.65
2022-10-03T11:06:57.808Z,4.55
2022-10-03T11:09:56.802Z,5.18
2022-10-03T11:13:01.778Z,5.25
2022-10-03T11:16:35.354Z,6.32
2022-10-03T11:19:26.999Z,4.90
2022-10-03T11:22:35.939Z,5.45
2022-10-03T11:25:36.015Z,5.85
2022-10-03T11:28:38.284Z,6.00
2022-10-03T11:31:33.001Z,7.88
2022-10-03T11:34:21.510Z,6.50
2022-10-03T11:37:34.007Z,4.38
2022-10-03T11:40:35.467Z,6.68
2022-10-03T11:43:39.431Z,3.88
2022-10-03T11:46:51.229Z,4.88
2022-10-03T11:49:56.387Z,3.72
2022-10-03T11:53:07.012Z,5.72
2022-10-03T11:56:04.953Z,3.97
2022-10-03T11:58:59.256Z,4.88
2022-10-03T12:01:32.219Z,5.57
2022-10-03T12:04:18.156Z,3.65
2022-10-03T12:07:29.883Z,3.83
2022-10-03T12:10:30.196Z,5.40
2022-10-03T12:12:59.477Z,3.70
2022-10-03T12:16:26.739Z,3.63
2022-10-03T12:19:13.010Z,7.15
2022-10-03T12:21:55.928Z,6.95
2022-10-03T12:24:36.554Z,5.70
2022-10-03T12:27:41.944Z,3.60
2022-10-03T12:30:17.950Z,5.40
2022-10-03T12:33:22.380Z,4.65
2022-10-03T12:36:13.171Z,5.22
2022-10-03T12:39:04.908Z,4.70
2022-10-03T12:42:04.682Z,5.35
2022-10-03T12:44:53.601Z,2.78
2022-10-03T12:47:51.160Z,4.97
2022-10-03T12:50:43.762Z,2.92
2022-10-03T12:53:16.939Z,5.30
2022-10-03T12:56:13.682Z,2.95
2022-10-03T12:59:11.051Z,2.63
2022-10-03T13:02:26.109Z,5.18
2022-10-03T13:05:26.401Z,6.40
2022-10-03T13:08:28.153Z,5.78
2022-10-03T13:11:25.893Z,18.10
2022-10-03T13:14:20.043Z,7.07
2022-10-03T13:17:15.069Z,5.28
2022-10-03T13:20:14.622Z,4.47
2022-10-03T13:23:24.351Z,5.15
2022-10-03T13:26:25.758Z,3.70
2022-10-03T13:29:14.133Z,5.95
2022-10-03T13:32:01.344Z,5.63
2022-10-03T13:34:37.007Z,4.20
2022-10-03T13:37:19.270Z,5.57
2022-10-03T13:39:54.087Z,4.35
2022-10-03T13:42:42.278Z,5.25
2022-10-03T13:45:27.281Z,8.98
2022-10-03T13:48:21.543Z,4.72
2022-10-03T13:50:58.284Z,5.70
2022-10-03T13:54:01.112Z,5.70
2022-10-03T13:56:31.155Z,5.53
2022-10-03T13:59:33.258Z,6.18
2022-10-03T14:02:08.857Z,4.00
2022-10-03T14:05:18.783Z,5.07
2022-10-03T14:08:39.988Z,6.63
2022-10-03T14:11:26.841Z,6.60
2022-10-03T14:14:21.465Z,3.22
2022-10-03T14:17:53.102Z,5.23
2022-10-03T14:21:02.253Z,5.23
2022-10-03T14:23:50.584Z,6.17
2022-10-03T14:26:52.951Z,11.57
2022-10-03T14:29:59.350Z,5.40
2022-10-03T14:32:50.217Z,4.97
2022-10-03T14:35:51.119Z,4.87
2022-10-03T14:38:56.206Z,8.90
2022-10-03T14:41:52.081Z,5.23
2022-10-03T14:44:35.256Z,4.53
2022-10-03T14:47:11.246Z,4.33
2022-10-03T14:49:56.445Z,5.97
2022-10-03T14:53:02.557Z,5.60
2022-10-03T14:55:44.956Z,4.40
2022-10-03T15:02:27.620Z,5.63
2022-10-03T15:05:03.918Z,3.67
2022-10-03T15:07:41.546Z,3.87
2022-10-03T15:10:16.273Z,3.00
2022-10-03T15:12:59.038Z,4.73
2022-10-03T15:15:32.379Z,6.13
2022-10-03T15:18:03.335Z,3.20
2022-10-03T15:20:41.725Z,2.80
2022-10-03T15:23:40.261Z,6.00
2022-10-03T15:26:19.470Z,3.47
2022-10-03T15:28:53.855Z,6.40
2022-10-03T15:31:26.151Z,4.03
2022-10-03T15:33:55.285Z,2.77
2022-10-03T15:36:32.253Z,4.50
2022-10-03T15:39:04.859Z,3.13
2022-10-03T15:42:15.363Z,3.75
2022-10-03T15:45:05.550Z,5.83
2022-10-03T15:47:40.107Z,6.07
2022-10-03T15:50:31.030Z,2.83
2022-10-03T15:53:35.511Z,9.07
2022-10-03T15:56:17.624Z,4.57
2022-10-03T15:58:51.516Z,5.27
2022-10-03T16:01:33.150Z,3.97
2022-10-03T16:04:08.213Z,4.07
2022-10-03T16:06:47.627Z,5.17
2022-10-03T16:09:38.814Z,4.37
2022-10-03T16:12:16.692Z,6.53
2022-10-03T16:14:52.293Z,3.87
2022-10-03T16:17:28.971Z,6.43
2022-10-03T16:20:10.087Z,6.30
2022-10-03T16:22:52.110Z,4.53
2022-10-03T16:25:47.978Z,6.00
2022-10-03T16:28:21.842Z,7.13
2022-10-03T16:31:11.510Z,6.23
2022-10-03T16:33:52.623Z,6.47
2022-10-03T16:36:23.272Z,4.13
2022-10-03T16:39:29.909Z,5.67
2022-10-03T16:41:56.776Z,5.13
2022-10-03T16:44:39.829Z,6.87
2022-10-03T16:47:09.475Z,4.33
2022-10-03T16:50:15.341Z,3.73
2022-10-03T16:52:45.758Z,5.13
2022-10-03T16:55:34.977Z,8.80
2022-10-03T16:58:23.062Z,5.10
2022-10-03T17:01:26.500Z,4.70
2022-10-03T17:04:15.684Z,5.77
2022-10-03T17:06:51.379Z,5.10
2022-10-03T17:09:38.776Z,7.10
2022-10-03T17:12:33.139Z,8.47
2022-10-03T17:15:08.656Z,5.87
2022-10-03T17:17:59.832Z,7.73
2022-10-03T17:20:52.224Z,5.80
2022-10-03T17:23:57.875Z,8.37
2022-10-03T17:26:34.035Z,8.50
2022-10-03T17:29:18.117Z,5.97
2022-10-03T17:31:48.012Z,8.80
2022-10-03T17:34:26.269Z,14.10
2022-10-03T17:37:29.138Z,7.90
2022-10-03T17:40:23.115Z,8.17
2022-10-03T17:43:01.888Z,6.53
2022-10-03T17:45:41.784Z,8.37
2022-10-03T17:48:19.767Z,13.03
2022-10-03T17:51:26.879Z,6.23
2022-10-03T17:53:57.950Z,4.67
2022-10-03T17:56:27.386Z,8.83
2022-10-03T17:59:12.174Z,7.27
2022-10-03T18:01:55.583Z,14.00
2022-10-03T18:04:42.720Z,7.93
2022-10-03T18:07:18.549Z,9.53
2022-10-03T18:09:54.593Z,9.47
2022-10-03T18:12:42.166Z,7.73
2022-10-03T18:15:37.422Z,11.97
2022-10-03T18:18:26.206Z,11.07
2022-10-03T18:21:02.674Z,8.60
2022-10-03T18:23:55.817Z,10.80
2022-10-03T18:26:38.196Z,6.03
2022-10-03T18:29:32.905Z,7.70
2022-10-03T18:32:22.638Z,11.07
2022-10-03T18:35:05.112Z,6.83
2022-10-03T18:37:31.750Z,5.60
2022-10-03T18:40:00.255Z,7.00
2022-10-03T18:42:29.965Z,9.53
2022-10-03T18:45:00.568Z,7.67
2022-10-03T18:47:38.362Z,7.53
2022-10-03T18:50:30.262Z,5.43
2022-10-03T18:53:26.790Z,7.13
2022-10-03T18:56:03.200Z,12.57
2022-10-03T18:58:37.098Z,10.73
2022-10-03T19:01:31.789Z,8.90
2022-10-03T19:04:07.640Z,8.83
2022-10-03T19:06:43.439Z,10.57
2022-10-03T19:09:39.232Z,8.43
2022-10-03T19:12:23.418Z,8.00
2022-10-03T19:15:33.093Z,8.47
2022-10-03T19:18:27.441Z,10.10
2022-10-03T19:20:59.902Z,11.87
2022-10-03T19:23:41.421Z,7.50
2022-10-03T19:26:24.200Z,10.30
2022-10-03T19:28:58.265Z,6.63
2022-10-03T19:31:35.697Z,7.43
2022-10-03T19:34:26.710Z,8.93
2022-10-03T19:36:57.252Z,13.77
2022-10-03T19:39:29.234Z,14.03
2022-10-03T19:42:42.310Z,9.67
2022-10-03T19:45:15.056Z,10.23
2022-10-03T19:48:00.370Z,8.37
2022-10-03T19:50:38.124Z,7.23
2022-10-03T19:53:31.985Z,11.03
2022-10-03T19:56:04.129Z,8.87
2022-10-03T19:58:32.377Z,8.47
2022-10-03T20:01:02.360Z,11.80
2022-10-03T20:03:32.048Z,7.47
2022-10-03T20:06:22.588Z,7.90
2022-10-03T20:09:20.257Z,8.20
2022-10-03T20:12:00.375Z,8.73
2022-10-03T20:14:35.830Z,8.80
2022-10-03T20:17:10.196Z,11.03
2022-10-03T20:19:54.368Z,7.00
2022-10-03T20:22:26.839Z,7.60
2022-10-03T20:24:54.018Z,5.30
2022-10-03T20:27:45.429Z,6.77
2022-10-03T20:30:43.159Z,6.67
2022-10-03T20:33:31.587Z,5.00
2022-10-03T20:36:13.776Z,12.13
2022-10-03T20:38:59.500Z,6.50
2022-10-03T20:41:41.607Z,7.37
2022-10-03T20:44:17.730Z,8.77
2022-10-03T20:47:05.595Z,12.17
2022-10-03T20:49:52.778Z,9.05
2022-10-03T20:52:25.560Z,9.30
2022-10-03T20:55:02.907Z,8.13
2022-10-03T20:57:53.515Z,5.57
2022-10-03T21:00:25.322Z,6.53
2022-10-03T21:03:08.325Z,3.97
2022-10-03T21:05:46.241Z,10.07
2022-10-03T21:08:29.930Z,6.90
2022-10-03T21:11:04.640Z,4.70
2022-10-03T21:13:52.315Z,5.83
2022-10-03T21:16:30.353Z,5.97
2022-10-03T21:19:04.906Z,6.40
2022-10-03T21:21:43.385Z,3.77
2022-10-03T21:24:26.837Z,3.27
2022-10-03T21:27:06.923Z,4.93
2022-10-03T21:29:36.986Z,4.43
2022-10-03T21:32:49.189Z,4.77
2022-10-03T21:35:29.674Z,3.93
2022-10-03T21:38:08.332Z,4.07
2022-10-03T21:41:22.132Z,5.03
2022-10-03T21:44:49.791Z,5.50
2022-10-03T21:47:52.758Z,4.83
2022-10-03T21:50:29.453Z,3.60
2022-10-03T21:53:50.177Z,4.43
2022-10-03T21:56:34.919Z,7.37
2022-10-03T21:59:49.470Z,8.60
2022-10-03T22:03:18.088Z,7.20
2022-10-03T22:06:15.684Z,5.27
2022-10-03T22:08:47.617Z,9.20
2022-10-03T22:11:46.295Z,8.23
2022-10-03T22:14:54.327Z,5.07
2022-10-03T22:17:51.124Z,5.13
2022-10-03T22:20:26.119Z,5.87
2022-10-03T22:23:16.945Z,6.17
2022-10-03T22:25:58.165Z,5.27
2022-10-03T22:29:04.829Z,6.47
2022-10-03T22:31:56.822Z,6.30
2022-10-03T22:34:48.991Z,4.30
2022-10-03T22:37:16.549Z,4.03
2022-10-03T22:39:43.280Z,7.07
2022-10-03T22:42:14.915Z,4.97
2022-10-03T22:44:47.910Z,3.77
2022-10-03T22:47:24.747Z,2.60
2022-10-03T22:49:58.892Z,8.30
2022-10-03T22:52:34.994Z,5.97
2022-10-03T22:55:05.671Z,4.70
2022-10-03T22:57:35.883Z,6.80
2022-10-03T23:00:17.788Z,2.50
2022-10-03T23:03:10.682Z,5.47
2022-10-03T23:06:10.916Z,2.70
2022-10-03T23:08:53.476Z,3.27
2022-10-03T23:11:33.003Z,2.70
2022-10-03T23:14:13.450Z,3.60
2022-10-03T23:17:13.224Z,6.33
2022-10-03T23:20:26.062Z,5.27
2022-10-03T23:23:01.000Z,6.83
2022-10-03T23:25:53.903Z,7.33
2022-10-03T23:28:48.044Z,4.93
2022-10-03T23:31:52.519Z,5.57
2022-10-03T23:34:37.433Z,4.53
2022-10-03T23:37:13.334Z,3.67
2022-10-03T23:39:44.415Z,2.73
2022-10-03T23:42:26.890Z,3.30
2022-10-03T23:44:58.846Z,5.10
2022-10-03T23:47:39.061Z,3.40
2022-10-03T23:50:08.848Z,2.70
2022-10-03T23:52:47.823Z,4.17
2022-10-03T23:55:31.197Z,3.87
2022-10-03T23:57:59.263Z,3.27
